createdAt,value
2022-11-16T00:00:50.001Z,33.17
2022-11-16T00:03:22.383Z,34.03
2022-11-16T00:05:59.785Z,31.23
2022-11-16T00:08:32.653Z,32.70
2022-11-16T00:11:15.539Z,31.82
2022-11-16T00:13:46.993Z,30.17
2022-11-16T00:16:19.019Z,31.43
2022-11-16T00:18:52.627Z,25.90
2022-11-16T00:21:23.218Z,29.17
2022-11-16T00:23:55.534Z,29.20
2022-11-16T00:26:27.321Z,29.70
2022-11-16T00:28:59.690Z,29.25
2022-11-16T00:31:33.629Z,30.27
2022-11-16T00:34:05.508Z,29.23
2022-11-16T00:36:36.169Z,28.23
2022-11-16T00:39:09.568Z,28.57
2022-11-16T00:41:42.510Z,27.63
2022-11-16T00:44:18.915Z,28.07
2022-11-16T00:46:49.507Z,27.23
2022-11-16T00:49:20.712Z,28.13
2022-11-16T00:51:52.352Z,28.60
2022-11-16T00:54:24.403Z,27.63
2022-11-16T00:56:54.945Z,28.87
2022-11-16T00:59:25.347Z,27.33
2022-11-16T01:01:56.438Z,27.47
2022-11-16T01:04:26.971Z,27.57
2022-11-16T01:06:58.951Z,27.30
2022-11-16T01:09:29.393Z,26.37
2022-11-16T01:12:08.901Z,26.93
2022-11-16T01:14:42.409Z,27.87
2022-11-16T01:17:13.446Z,27.23
2022-11-16T01:19:44.981Z,27.25
2022-11-16T01:22:17.630Z,26.03
2022-11-16T01:24:48.443Z,27.17
2022-11-16T01:27:20.218Z,28.23
2022-11-16T01:29:51.828Z,28.00
2022-11-16T01:32:24.499Z,27.07
2022-11-16T01:34:56.189Z,27.93
2022-11-16T01:37:28.433Z,26.13
2022-11-16T01:39:59.062Z,27.82
2022-11-16T01:42:33.366Z,29.03
2022-11-16T01:45:23.164Z,26.60
2022-11-16T01:47:55.465Z,27.80
2022-11-16T01:50:26.557Z,28.27
2022-11-16T01:53:00.166Z,27.57
2022-11-16T01:55:33.034Z,27.83
2022-11-16T01:58:04.479Z,28.93
2022-11-16T02:00:35.356Z,28.53
2022-11-16T02:03:06.912Z,27.62
2022-11-16T02:06:00.330Z,27.60
2022-11-16T02:09:12.030Z,27.03
2022-11-16T02:12:14.678Z,27.57
2022-11-16T02:15:10.912Z,26.50
2022-11-16T02:17:47.215Z,26.97
2022-11-16T02:20:30.718Z,26.30
2022-11-16T02:23:14.594Z,27.53
2022-11-16T02:26:15.342Z,26.73
2022-11-16T02:28:48.817Z,25.60
2022-11-16T02:31:22.515Z,27.17
2022-11-16T02:33:58.154Z,24.53
2022-11-16T02:36:28.695Z,24.87
2022-11-16T02:39:02.490Z,25.53
2022-11-16T02:41:38.667Z,25.63
2022-11-16T02:44:11.389Z,24.73
2022-11-16T02:46:44.432Z,26.00
2022-11-16T02:49:18.757Z,25.27
2022-11-16T02:51:50.352Z,25.33
2022-11-16T02:54:24.179Z,23.40
2022-11-16T02:57:11.334Z,25.33
2022-11-16T03:02:42.239Z,27.10
2022-11-16T03:05:23.432Z,29.33
2022-11-16T03:08:03.144Z,28.67
2022-11-16T03:10:54.570Z,29.67
2022-11-16T03:13:30.506Z,29.83
2022-11-16T03:16:03.816Z,29.50
2022-11-16T03:18:36.543Z,31.10
2022-11-16T03:21:30.647Z,30.70
2022-11-16T03:24:01.937Z,30.30
2022-11-16T03:26:35.458Z,30.83
2022-11-16T03:29:13.708Z,31.65
2022-11-16T03:31:52.525Z,29.17
2022-11-16T03:34:25.990Z,29.67
2022-11-16T03:36:57.270Z,29.27
2022-11-16T03:39:33.523Z,29.83
2022-11-16T03:42:07.405Z,28.93
2022-11-16T03:44:40.741Z,29.33
2022-11-16T03:47:13.986Z,29.17
2022-11-16T03:49:48.985Z,30.47
2022-11-16T03:52:20.690Z,28.23
2022-11-16T03:54:52.610Z,30.10
2022-11-16T03:57:23.266Z,29.60
2022-11-16T03:59:56.248Z,30.63
2022-11-16T04:02:28.383Z,32.03
2022-11-16T04:05:17.091Z,31.90
2022-11-16T04:08:08.814Z,31.63
2022-11-16T04:10:57.624Z,33.17
2022-11-16T04:13:49.265Z,33.40
2022-11-16T04:16:37.797Z,34.23
2022-11-16T04:19:32.280Z,34.20
2022-11-16T04:22:23.541Z,33.90
2022-11-16T04:24:58.326Z,34.10
2022-11-16T04:27:49.019Z,35.27
2022-11-16T04:30:23.637Z,35.77
2022-11-16T04:33:12.525Z,35.28
2022-11-16T04:36:01.260Z,33.00
2022-11-16T04:38:35.135Z,32.83
2022-11-16T04:41:08.777Z,31.20
2022-11-16T04:43:40.121Z,29.00
2022-11-16T04:46:28.530Z,32.13
2022-11-16T04:48:59.214Z,32.13
2022-11-16T04:51:32.510Z,34.23
2022-11-16T04:54:02.108Z,33.40
2022-11-16T04:56:33.075Z,28.70
2022-11-16T04:59:05.076Z,34.10
2022-11-16T05:01:54.472Z,34.73
2022-11-16T05:04:24.948Z,34.17
2022-11-16T05:06:56.371Z,34.17
2022-11-16T05:09:28.309Z,32.97
2022-11-16T05:12:01.445Z,34.53
2022-11-16T05:14:31.835Z,33.77
2022-11-16T05:17:02.893Z,34.10
2022-11-16T05:19:52.591Z,31.07
2022-11-16T05:22:24.466Z,34.27
2022-11-16T05:24:56.782Z,34.40
2022-11-16T05:27:28.928Z,33.53
2022-11-16T05:30:00.043Z,33.07
2022-11-16T05:32:30.566Z,32.43
2022-11-16T05:35:02.402Z,35.25
2022-11-16T05:37:33.019Z,33.77
2022-11-16T05:40:03.673Z,34.43
2022-11-16T05:42:34.358Z,33.73
2022-11-16T05:45:05.314Z,33.47
2022-11-16T05:47:35.854Z,31.90
2022-11-16T05:50:07.219Z,34.25
2022-11-16T05:52:39.629Z,31.67
2022-11-16T05:55:10.825Z,32.57
2022-11-16T05:57:44.314Z,33.70
2022-11-16T06:00:17.254Z,31.57
2022-11-16T06:02:49.228Z,33.17
2022-11-16T06:05:19.837Z,34.20
2022-11-16T06:07:50.242Z,32.77
2022-11-16T06:10:21.290Z,33.42
2022-11-16T06:12:52.148Z,33.15
2022-11-16T06:15:25.363Z,33.80
2022-11-16T06:17:59.990Z,34.10
2022-11-16T06:20:30.612Z,32.55
2022-11-16T06:23:02.206Z,32.80
2022-11-16T06:25:33.927Z,32.40
2022-11-16T06:28:07.942Z,33.97
2022-11-16T06:30:40.214Z,33.00
2022-11-16T06:33:11.057Z,34.88
2022-11-16T06:35:41.683Z,34.03
2022-11-16T06:38:14.735Z,33.07
2022-11-16T06:40:48.224Z,33.15
2022-11-16T06:43:19.164Z,33.77
2022-11-16T06:45:52.129Z,33.45
2022-11-16T06:48:23.135Z,36.38
2022-11-16T06:50:56.186Z,34.60
2022-11-16T06:53:29.358Z,32.23
2022-11-16T06:56:05.723Z,32.73
2022-11-16T06:58:37.985Z,35.20
2022-11-16T07:01:13.282Z,33.53
2022-11-16T07:03:44.689Z,33.67
2022-11-16T07:06:16.884Z,32.38
2022-11-16T07:08:47.487Z,32.00
2022-11-16T07:11:20.524Z,34.13
2022-11-16T07:13:51.414Z,34.10
2022-11-16T07:16:23.380Z,35.28
2022-11-16T07:18:58.021Z,34.33
2022-11-16T07:21:28.726Z,34.23
2022-11-16T07:23:59.750Z,34.03
2022-11-16T07:26:31.321Z,32.75
2022-11-16T07:29:02.974Z,32.80
2022-11-16T07:31:35.019Z,33.67
2022-11-16T07:34:06.775Z,34.30
2022-11-16T07:36:37.304Z,32.40
2022-11-16T07:39:09.843Z,33.67
2022-11-16T07:41:41.978Z,35.23
2022-11-16T07:44:13.782Z,33.57
2022-11-16T07:46:47.601Z,35.17
2022-11-16T07:49:17.909Z,36.53
2022-11-16T07:51:49.019Z,34.97
2022-11-16T07:54:19.683Z,33.20
2022-11-16T07:56:50.317Z,34.90
2022-11-16T07:59:20.875Z,35.23
2022-11-16T08:01:51.479Z,33.70
2022-11-16T08:04:24.899Z,35.17
2022-11-16T08:06:58.431Z,33.43
2022-11-16T08:09:29.111Z,33.87
2022-11-16T08:12:00.853Z,34.33
2022-11-16T08:14:31.363Z,32.50
2022-11-16T08:17:08.575Z,33.60
2022-11-16T08:19:40.237Z,32.87
2022-11-16T08:22:14.061Z,32.70
2022-11-16T08:24:44.663Z,30.70
2022-11-16T08:27:18.198Z,32.17
2022-11-16T08:29:50.587Z,28.93
2022-11-16T08:32:22.647Z,29.40
2022-11-16T08:34:53.246Z,30.93
2022-11-16T08:37:25.699Z,30.27
2022-11-16T08:39:57.648Z,29.20
2022-11-16T08:42:28.585Z,29.47
2022-11-16T08:45:00.728Z,29.83
2022-11-16T08:47:32.389Z,28.77
2022-11-16T08:50:05.175Z,27.60
2022-11-16T08:52:35.792Z,28.00
2022-11-16T08:55:07.259Z,27.77
2022-11-16T08:57:41.099Z,27.67
2022-11-16T09:00:12.721Z,25.95
2022-11-16T09:02:45.060Z,25.50
2022-11-16T09:05:19.245Z,24.57
2022-11-16T09:07:50.111Z,27.37
2022-11-16T09:10:23.305Z,25.53
2022-11-16T09:12:58.306Z,23.47
2022-11-16T09:15:29.798Z,24.67
2022-11-16T09:18:01.455Z,24.30
2022-11-16T09:20:33.448Z,23.47
2022-11-16T09:23:05.731Z,23.67
2022-11-16T09:25:38.068Z,24.07
2022-11-16T09:28:08.959Z,20.50
2022-11-16T09:30:39.399Z,20.30
2022-11-16T09:33:12.309Z,20.53
2022-11-16T09:35:43.356Z,17.40
2022-11-16T09:38:24.205Z,19.03
2022-11-16T09:40:53.489Z,17.20
2022-11-16T09:43:45.566Z,15.77
2022-11-16T09:46:34.647Z,14.73
2022-11-16T09:49:17.751Z,15.07
2022-11-16T09:51:50.368Z,15.30
2022-11-16T09:54:23.869Z,16.70
2022-11-16T09:56:59.811Z,14.97
2022-11-16T09:59:40.163Z,15.07
2022-11-16T10:02:32.649Z,15.83
2022-11-16T10:05:26.589Z,16.43
2022-11-16T10:08:22.843Z,15.40
2022-11-16T10:10:59.749Z,17.83
2022-11-16T10:13:40.271Z,15.23
2022-11-16T10:16:24.059Z,16.60
2022-11-16T10:19:02.120Z,17.30
2022-11-16T10:21:59.672Z,17.07
2022-11-16T10:24:52.831Z,17.03
2022-11-16T10:27:29.840Z,16.50
2022-11-16T10:30:20.976Z,17.27
2022-11-16T10:33:11.442Z,16.63
2022-11-16T10:35:50.400Z,17.47
2022-11-16T10:38:24.377Z,16.23
2022-11-16T10:41:02.743Z,17.60
2022-11-16T10:43:33.626Z,19.02
2022-11-16T10:46:17.211Z,16.80
2022-11-16T10:49:14.080Z,16.02
2022-11-16T10:51:43.447Z,17.33
2022-11-16T10:54:17.862Z,18.53
2022-11-16T10:56:57.873Z,16.90
2022-11-16T10:59:40.290Z,19.35
2022-11-16T11:02:33.389Z,19.27
2022-11-16T11:05:22.244Z,17.53
2022-11-16T11:08:07.434Z,18.93
2022-11-16T11:10:40.273Z,20.88
2022-11-16T11:13:18.688Z,19.37
2022-11-16T11:15:51.388Z,17.37
2022-11-16T11:18:28.879Z,16.85
2022-11-16T11:21:22.402Z,19.25
2022-11-16T11:24:16.084Z,19.37
2022-11-16T11:26:39.075Z,19.27
2022-11-16T11:29:29.525Z,19.52
2022-11-16T11:32:11.694Z,20.97
2022-11-16T11:34:48.880Z,19.80
2022-11-16T11:37:23.811Z,20.50
2022-11-16T11:40:13.032Z,21.93
2022-11-16T11:42:56.856Z,21.37
2022-11-16T11:45:30.617Z,20.52
2022-11-16T11:48:06.844Z,18.77
2022-11-16T11:50:52.278Z,20.37
2022-11-16T11:53:32.979Z,21.53
2022-11-16T11:56:03.853Z,21.20
2022-11-16T11:58:37.391Z,21.05
2022-11-16T12:01:47.446Z,22.07
2022-11-16T12:04:28.651Z,20.77
2022-11-16T12:07:02.314Z,20.60
2022-11-16T12:09:36.150Z,20.53
2022-11-16T12:12:14.858Z,22.05
2022-11-16T12:15:08.886Z,20.88
2022-11-16T12:18:06.087Z,22.73
2022-11-16T12:20:43.436Z,20.23
2022-11-16T12:23:32.228Z,21.13
2022-11-16T12:26:18.018Z,19.93
2022-11-16T12:29:06.616Z,22.52
2022-11-16T12:32:15.816Z,21.95
2022-11-16T12:34:54.881Z,21.40
2022-11-16T12:37:50.925Z,21.77
2022-11-16T12:40:35.021Z,21.60
2022-11-16T12:43:28.472Z,20.63
2022-11-16T12:46:19.808Z,19.60
2022-11-16T12:49:05.085Z,21.35
2022-11-16T12:51:57.657Z,20.47
2022-11-16T12:54:31.315Z,20.97
2022-11-16T12:57:05.349Z,22.60
2022-11-16T13:00:08.382Z,21.37
2022-11-16T13:03:07.805Z,22.27
2022-11-16T13:05:59.270Z,23.22
2022-11-16T13:08:43.660Z,19.62
2022-11-16T13:11:30.710Z,18.87
2022-11-16T13:14:04.084Z,20.97
2022-11-16T13:16:35.998Z,20.53
2022-11-16T13:19:15.095Z,20.33
2022-11-16T13:22:07.332Z,21.62
2022-11-16T13:25:06.835Z,19.65
2022-11-16T13:27:49.569Z,20.43
2022-11-16T13:30:26.607Z,19.50
2022-11-16T13:33:03.642Z,17.80
2022-11-16T13:35:37.713Z,17.23
2022-11-16T13:38:13.663Z,16.70
2022-11-16T13:40:44.447Z,17.73
2022-11-16T13:43:19.450Z,16.63
2022-11-16T13:46:00.193Z,17.33
2022-11-16T13:48:37.873Z,16.50
2022-11-16T13:51:11.720Z,16.47
2022-11-16T13:54:43.080Z,16.67
2022-11-16T13:56:29.016Z,15.97
2022-11-16T13:58:58.373Z,16.60
2022-11-16T14:01:32.743Z,17.80
2022-11-16T14:04:35.179Z,15.20
2022-11-16T14:07:06.185Z,16.67
2022-11-16T14:09:46.392Z,16.97
2022-11-16T14:12:42.382Z,17.03
2022-11-16T14:15:37.359Z,16.33
2022-11-16T14:18:20.655Z,16.40
2022-11-16T14:20:58.420Z,17.33
2022-11-16T14:23:44.884Z,16.53
2022-11-16T14:26:30.476Z,16.85
2022-11-16T14:29:25.939Z,15.40
2022-11-16T14:31:59.198Z,15.57
2022-11-16T14:34:43.711Z,15.90
2022-11-16T14:37:17.235Z,16.55
2022-11-16T14:39:50.428Z,16.10
2022-11-16T14:43:01.566Z,14.60
2022-11-16T14:45:09.434Z,14.90
2022-11-16T14:47:43.471Z,15.30
2022-11-16T14:50:28.297Z,16.20
2022-11-16T14:53:05.832Z,15.55
2022-11-16T14:55:39.669Z,15.30
2022-11-16T14:58:24.691Z,15.30
2022-11-16T15:00:58.777Z,14.17
2022-11-16T15:03:36.229Z,15.30
2022-11-16T15:06:09.120Z,14.90
2022-11-16T15:08:48.575Z,15.00
2022-11-16T15:11:32.461Z,15.60
2022-11-16T15:14:06.758Z,15.18
2022-11-16T15:16:40.415Z,15.88
2022-11-16T15:19:15.731Z,15.72
2022-11-16T15:21:57.374Z,15.80
2022-11-16T15:24:33.951Z,15.10
2022-11-16T15:27:25.088Z,13.40
2022-11-16T15:29:57.176Z,13.65
2022-11-16T15:32:27.678Z,13.60
2022-11-16T15:35:04.003Z,12.07
2022-11-16T15:37:33.452Z,12.60
2022-11-16T15:40:08.080Z,11.77
2022-11-16T15:42:42.165Z,11.93
2022-11-16T15:45:17.743Z,12.45
2022-11-16T15:47:49.491Z,11.67
2022-11-16T15:50:24.380Z,11.73
2022-11-16T15:52:56.446Z,10.98
2022-11-16T15:55:37.752Z,10.75
2022-11-16T15:58:16.014Z,10.78
2022-11-16T16:00:49.865Z,11.00
2022-11-16T16:03:31.230Z,10.97
2022-11-16T16:06:02.647Z,10.10
2022-11-16T16:08:35.608Z,10.37
2022-11-16T16:11:15.810Z,9.63
2022-11-16T16:14:03.595Z,11.20
2022-11-16T16:16:37.596Z,10.27
2022-11-16T16:19:30.362Z,11.27
2022-11-16T16:22:02.791Z,10.50
2022-11-16T16:24:45.820Z,10.37
2022-11-16T16:27:23.038Z,11.50
2022-11-16T16:29:56.043Z,12.40
2022-11-16T16:32:31.870Z,11.00
2022-11-16T16:35:05.134Z,11.80
2022-11-16T16:37:39.753Z,11.80
2022-11-16T16:40:13.188Z,12.47
2022-11-16T16:42:45.738Z,12.00
2022-11-16T16:45:34.568Z,10.40
2022-11-16T16:48:08.226Z,12.00
2022-11-16T16:50:42.139Z,12.43
2022-11-16T16:53:16.469Z,12.20
2022-11-16T16:55:48.970Z,10.77
2022-11-16T16:58:19.873Z,10.90
2022-11-16T17:00:56.943Z,11.33
2022-11-16T17:03:24.877Z,11.40
2022-11-16T17:05:58.648Z,11.93
2022-11-16T17:08:33.277Z,11.27
2022-11-16T17:11:07.153Z,11.33
2022-11-16T17:13:37.837Z,11.10
2022-11-16T17:16:13.772Z,12.20
2022-11-16T17:18:45.879Z,12.13
2022-11-16T17:21:16.411Z,12.43
2022-11-16T17:23:49.234Z,12.43
2022-11-16T17:26:23.958Z,12.37
2022-11-16T17:28:59.400Z,13.03
2022-11-16T17:31:30.406Z,12.90
2022-11-16T17:34:01.635Z,12.30
2022-11-16T17:36:32.249Z,12.13
2022-11-16T17:39:09.473Z,10.67
2022-11-16T17:41:40.036Z,13.23
2022-11-16T17:44:14.948Z,11.83
2022-11-16T17:46:47.461Z,12.03
2022-11-16T17:49:19.864Z,11.50
2022-11-16T17:51:50.427Z,10.73
2022-11-16T17:54:23.285Z,10.60
2022-11-16T17:56:53.782Z,10.33
2022-11-16T17:59:29.798Z,11.13
2022-11-16T18:02:02.998Z,10.25
2022-11-16T18:04:36.696Z,11.03
2022-11-16T18:07:09.852Z,10.57
2022-11-16T18:09:41.917Z,10.55
2022-11-16T18:12:12.841Z,10.03
2022-11-16T18:14:59.896Z,8.93
2022-11-16T18:17:18.222Z,10.23
2022-11-16T18:19:51.789Z,9.88
2022-11-16T18:22:23.812Z,9.75
2022-11-16T18:24:57.667Z,10.23
2022-11-16T18:27:28.824Z,10.65
2022-11-16T18:30:00.935Z,9.38
2022-11-16T18:32:33.472Z,10.00
2022-11-16T18:35:09.889Z,8.67
2022-11-16T18:37:41.952Z,9.63
2022-11-16T18:40:14.224Z,9.90
2022-11-16T18:42:47.670Z,9.43
2022-11-16T18:45:20.218Z,9.53
2022-11-16T18:47:54.895Z,9.53
2022-11-16T18:50:26.968Z,9.93
2022-11-16T18:52:59.137Z,9.70
2022-11-16T18:55:29.609Z,10.30
2022-11-16T18:58:17.548Z,9.47
2022-11-16T19:00:38.832Z,9.63
2022-11-16T19:03:11.681Z,9.97
2022-11-16T19:05:44.634Z,9.90
2022-11-16T19:08:17.154Z,9.53
2022-11-16T19:10:47.750Z,9.23
2022-11-16T19:13:18.270Z,9.90
2022-11-16T19:15:50.197Z,9.20
2022-11-16T19:18:25.947Z,8.70
2022-11-16T19:21:10.665Z,7.80
2022-11-16T19:23:48.596Z,8.57
2022-11-16T19:26:17.588Z,8.30
2022-11-16T19:28:52.007Z,8.60
2022-11-16T19:31:25.488Z,8.80
2022-11-16T19:33:59.848Z,8.20
2022-11-16T19:36:34.600Z,8.33
2022-11-16T19:39:08.385Z,8.63
2022-11-16T19:41:40.326Z,8.30
2022-11-16T19:44:11.144Z,8.50
2022-11-16T19:46:44.150Z,8.37
2022-11-16T19:49:19.970Z,8.13
2022-11-16T19:51:50.626Z,7.50
2022-11-16T19:54:22.122Z,8.20
2022-11-16T19:56:58.548Z,8.03
2022-11-16T19:59:30.478Z,8.67
2022-11-16T20:02:03.741Z,8.18
2022-11-16T20:04:35.986Z,7.50
2022-11-16T20:07:08.365Z,8.40
2022-11-16T20:09:40.757Z,9.07
2022-11-16T20:12:20.123Z,7.83
2022-11-16T20:14:50.895Z,7.47
2022-11-16T20:17:24.872Z,8.80
2022-11-16T20:19:55.450Z,8.00
2022-11-16T20:22:26.599Z,7.58
2022-11-16T20:25:00.124Z,7.77
2022-11-16T20:27:37.258Z,7.83
2022-11-16T20:30:09.933Z,7.47
2022-11-16T20:32:43.948Z,7.83
2022-11-16T20:35:19.280Z,7.67
2022-11-16T20:37:52.184Z,7.83
2022-11-16T20:40:25.044Z,7.67
2022-11-16T20:42:58.196Z,8.47
2022-11-16T20:45:28.710Z,9.43
2022-11-16T20:48:03.741Z,8.57
2022-11-16T20:50:35.808Z,8.20
2022-11-16T20:53:12.025Z,7.93
2022-11-16T20:55:44.058Z,7.83
2022-11-16T20:58:22.651Z,9.23
2022-11-16T21:00:52.995Z,8.77
2022-11-16T21:03:24.387Z,8.93
2022-11-16T21:05:56.025Z,9.07
2022-11-16T21:08:30.907Z,7.40
2022-11-16T21:11:13.880Z,9.63
2022-11-16T21:14:04.900Z,8.95
2022-11-16T21:16:36.275Z,8.80
2022-11-16T21:19:09.889Z,8.40
2022-11-16T21:21:42.470Z,7.43
2022-11-16T21:24:14.151Z,8.50
2022-11-16T21:26:46.437Z,9.70
2022-11-16T21:29:20.591Z,9.07
2022-11-16T21:31:54.554Z,8.50
2022-11-16T21:34:40.122Z,9.10
2022-11-16T21:37:08.312Z,8.43
2022-11-16T21:39:39.477Z,8.97
2022-11-16T21:42:12.804Z,9.07
2022-11-16T21:44:43.337Z,7.77
2022-11-16T21:47:15.422Z,8.10
2022-11-16T21:50:16.440Z,9.10
2022-11-16T21:52:22.734Z,8.80
2022-11-16T21:54:54.758Z,7.97
2022-11-16T21:57:28.584Z,8.83
2022-11-16T22:00:03.023Z,8.57
2022-11-16T22:02:35.507Z,8.60
2022-11-16T22:05:24.912Z,8.57
2022-11-16T22:07:58.759Z,9.30
2022-11-16T22:10:33.487Z,8.55
2022-11-16T22:13:09.318Z,7.53
2022-11-16T22:15:41.574Z,8.10
2022-11-16T22:18:13.831Z,8.27
2022-11-16T22:20:51.641Z,8.47
2022-11-16T22:23:24.145Z,9.20
2022-11-16T22:26:03.704Z,7.43
2022-11-16T22:28:35.168Z,8.35
2022-11-16T22:31:10.774Z,8.60
2022-11-16T22:33:41.817Z,8.43
2022-11-16T22:36:13.581Z,8.33
2022-11-16T22:38:44.122Z,8.43
2022-11-16T22:41:19.513Z,8.23
2022-11-16T22:43:49.946Z,8.87
2022-11-16T22:46:21.914Z,8.90
2022-11-16T22:48:54.092Z,8.77
2022-11-16T22:51:34.960Z,8.87
2022-11-16T22:54:07.401Z,8.23
2022-11-16T22:56:40.043Z,9.07
2022-11-16T22:59:12.053Z,9.03
2022-11-16T23:01:44.725Z,8.47
2022-11-16T23:04:16.917Z,10.03
2022-11-16T23:06:49.239Z,9.90
2022-11-16T23:09:19.891Z,9.80
2022-11-16T23:12:11.295Z,9.57
2022-11-16T23:15:01.234Z,8.90
2022-11-16T23:17:32.511Z,9.50
2022-11-16T23:20:21.196Z,8.33
2022-11-16T23:23:09.358Z,9.03
2022-11-16T23:26:04.039Z,9.17
2022-11-16T23:28:36.372Z,9.20
2022-11-16T23:31:09.435Z,8.53
2022-11-16T23:33:47.043Z,11.23
2022-11-16T23:36:17.524Z,9.40
2022-11-16T23:38:48.629Z,9.77
2022-11-16T23:41:40.300Z,9.80
2022-11-16T23:44:14.200Z,9.10
2022-11-16T23:46:50.014Z,8.33
2022-11-16T23:49:20.680Z,8.60
2022-11-16T23:51:51.910Z,9.47
2022-11-16T23:54:26.139Z,9.73
2022-11-16T23:56:56.939Z,9.60
2022-11-16T23:59:27.734Z,9.60
